sensor_id;sensor_type;location;lat;lon;timestamp;temperature;humidity
5705;DHT22;2877;48.238;11.160;2023-03-15T00:00:46;3.50;99.90
5705;DHT22;2877;48.238;11.160;2023-03-15T00:03:13;3.40;99.90
5705;DHT22;2877;48.238;11.160;2023-03-15T00:05:48;3.30;99.90
5705;DHT22;2877;48.238;11.160;2023-03-15T00:08:14;3.10;99.90
5705;DHT22;2877;48.238;11.160;2023-03-15T00:10:44;2.90;99.90
5705;DHT22;2877;48.238;11.160;2023-03-15T00:13:11;2.80;99.90
5705;DHT22;2877;48.238;11.160;2023-03-15T00:15:47;2.50;99.90
5705;DHT22;2877;48.238;11.160;2023-03-15T00:18:13;2.40;99.90
5705;DHT22;2877;48.238;11.160;2023-03-15T00:20:39;2.20;99.90
5705;DHT22;2877;48.238;11.160;2023-03-15T00:23:05;2.00;99.90
5705;DHT22;2877;48.238;11.160;2023-03-15T00:25:30;1.70;99.90
5705;DHT22;2877;48.238;11.160;2023-03-15T00:27:56;1.50;99.90
5705;DHT22;2877;48.238;11.160;2023-03-15T00:30:21;1.30;99.90
5705;DHT22;2877;48.238;11.160;2023-03-15T00:32:47;1.00;99.90
5705;DHT22;2877;48.238;11.160;2023-03-15T00:35:12;0.90;99.90
5705;DHT22;2877;48.238;11.160;2023-03-15T00:37:38;0.80;99.90
5705;DHT22;2877;48.238;11.160;2023-03-15T00:40:04;0.80;99.90
5705;DHT22;2877;48.238;11.160;2023-03-15T00:42:31;0.80;99.90
5705;DHT22;2877;48.238;11.160;2023-03-15T00:44:58;0.80;99.90
5705;DHT22;2877;48.238;11.160;2023-03-15T00:47:23;0.90;99.90
5705;DHT22;2877;48.238;11.160;2023-03-15T00:49:49;0.90;99.90
5705;DHT22;2877;48.238;11.160;2023-03-15T00:52:15;1.00;99.90
5705;DHT22;2877;48.238;11.160;2023-03-15T00:54:41;1.00;99.90
5705;DHT22;2877;48.238;11.160;2023-03-15T00:57:07;1.10;99.90
5705;DHT22;2877;48.238;11.160;2023-03-15T00:59:33;1.10;99.90
5705;DHT22;2877;48.238;11.160;2023-03-15T01:02:04;1.20;99.90
5705;DHT22;2877;48.238;11.160;2023-03-15T01:04:30;1.20;99.90
5705;DHT22;2877;48.238;11.160;2023-03-15T01:06:56;1.10;99.90
5705;DHT22;2877;48.238;11.160;2023-03-15T01:09:22;1.20;99.90
5705;DHT22;2877;48.238;11.160;2023-03-15T01:11:48;1.30;99.90
5705;DHT22;2877;48.238;11.160;2023-03-15T01:14:14;1.30;99.90
5705;DHT22;2877;48.238;11.160;2023-03-15T01:16:39;1.20;99.90
5705;DHT22;2877;48.238;11.160;2023-03-15T01:19:05;1.20;99.90
5705;DHT22;2877;48.238;11.160;2023-03-15T01:21:30;1.20;99.90
5705;DHT22;2877;48.238;11.160;2023-03-15T01:23:56;1.20;99.90
5705;DHT22;2877;48.238;11.160;2023-03-15T01:26:21;1.20;99.90
5705;DHT22;2877;48.238;11.160;2023-03-15T01:28:47;1.10;99.90
5705;DHT22;2877;48.238;11.160;2023-03-15T01:33:43;1.10;99.90
5705;DHT22;2877;48.238;11.160;2023-03-15T01:36:10;1.10;99.90
5705;DHT22;2877;48.238;11.160;2023-03-15T01:38:36;1.10;99.90
5705;DHT22;2877;48.238;11.160;2023-03-15T01:41:01;1.20;99.90
5705;DHT22;2877;48.238;11.160;2023-03-15T01:43:29;1.20;99.90
5705;DHT22;2877;48.238;11.160;2023-03-15T01:46:03;1.20;99.90
5705;DHT22;2877;48.238;11.160;2023-03-15T01:48:37;1.20;99.90
5705;DHT22;2877;48.238;11.160;2023-03-15T01:51:18;1.20;99.90
5705;DHT22;2877;48.238;11.160;2023-03-15T01:53:54;1.20;99.90
5705;DHT22;2877;48.238;11.160;2023-03-15T01:56:21;1.20;99.90
5705;DHT22;2877;48.238;11.160;2023-03-15T01:58:48;1.20;99.90
5705;DHT22;2877;48.238;11.160;2023-03-15T02:01:15;1.30;99.90
5705;DHT22;2877;48.238;11.160;2023-03-15T02:03:44;1.30;99.90
5705;DHT22;2877;48.238;11.160;2023-03-15T02:06:15;1.30;99.90
5705;DHT22;2877;48.238;11.160;2023-03-15T02:08:54;1.30;99.90
5705;DHT22;2877;48.238;11.160;2023-03-15T02:11:23;1.30;99.90
5705;DHT22;2877;48.238;11.160;2023-03-15T02:13:50;1.30;99.90
5705;DHT22;2877;48.238;11.160;2023-03-15T02:16:17;1.30;99.90
5705;DHT22;2877;48.238;11.160;2023-03-15T02:18:43;1.30;99.90
5705;DHT22;2877;48.238;11.160;2023-03-15T02:21:31;1.10;99.90
5705;DHT22;2877;48.238;11.160;2023-03-15T02:24:23;0.90;99.90
5705;DHT22;2877;48.238;11.160;2023-03-15T02:26:55;0.90;99.90
5705;DHT22;2877;48.238;11.160;2023-03-15T02:29:23;0.80;99.90
5705;DHT22;2877;48.238;11.160;2023-03-15T02:31:51;0.80;99.90
5705;DHT22;2877;48.238;11.160;2023-03-15T02:34:17;0.70;99.90
5705;DHT22;2877;48.238;11.160;2023-03-15T02:36:43;0.70;99.90
5705;DHT22;2877;48.238;11.160;2023-03-15T02:39:16;0.70;99.90
5705;DHT22;2877;48.238;11.160;2023-03-15T02:41:45;0.70;99.90
5705;DHT22;2877;48.238;11.160;2023-03-15T02:44:40;0.60;99.90
5705;DHT22;2877;48.238;11.160;2023-03-15T02:47:13;0.50;99.90
5705;DHT22;2877;48.238;11.160;2023-03-15T02:49:43;0.50;99.90
5705;DHT22;2877;48.238;11.160;2023-03-15T02:52:09;0.50;99.90
5705;DHT22;2877;48.238;11.160;2023-03-15T02:54:36;0.40;99.90
5705;DHT22;2877;48.238;11.160;2023-03-15T02:57:03;0.40;99.90
5705;DHT22;2877;48.238;11.160;2023-03-15T02:59:29;0.50;99.90
5705;DHT22;2877;48.238;11.160;2023-03-15T03:01:55;0.50;99.90
5705;DHT22;2877;48.238;11.160;2023-03-15T03:04:20;0.50;99.90
5705;DHT22;2877;48.238;11.160;2023-03-15T03:06:46;0.50;99.90
5705;DHT22;2877;48.238;11.160;2023-03-15T03:09:12;0.40;99.90
5705;DHT22;2877;48.238;11.160;2023-03-15T03:11:37;0.40;99.90
5705;DHT22;2877;48.238;11.160;2023-03-15T03:14:03;0.50;99.90
5705;DHT22;2877;48.238;11.160;2023-03-15T03:16:29;0.50;99.90
5705;DHT22;2877;48.238;11.160;2023-03-15T03:18:56;0.50;99.90
5705;DHT22;2877;48.238;11.160;2023-03-15T03:21:22;0.50;99.90
5705;DHT22;2877;48.238;11.160;2023-03-15T03:23:47;0.50;99.90
5705;DHT22;2877;48.238;11.160;2023-03-15T03:26:15;0.50;99.90
5705;DHT22;2877;48.238;11.160;2023-03-15T03:28:42;0.50;99.90
5705;DHT22;2877;48.238;11.160;2023-03-15T03:31:18;0.50;99.90
5705;DHT22;2877;48.238;11.160;2023-03-15T03:33:44;0.50;99.90
5705;DHT22;2877;48.238;11.160;2023-03-15T03:36:09;0.40;99.90
5705;DHT22;2877;48.238;11.160;2023-03-15T03:38:40;0.40;99.90
5705;DHT22;2877;48.238;11.160;2023-03-15T03:41:06;0.40;99.90
5705;DHT22;2877;48.238;11.160;2023-03-15T03:43:32;0.30;99.90
5705;DHT22;2877;48.238;11.160;2023-03-15T03:45:58;0.30;99.90
5705;DHT22;2877;48.238;11.160;2023-03-15T03:48:23;0.20;99.90
5705;DHT22;2877;48.238;11.160;2023-03-15T03:50:49;0.20;99.90
5705;DHT22;2877;48.238;11.160;2023-03-15T03:53:14;0.20;99.90
5705;DHT22;2877;48.238;11.160;2023-03-15T03:55:40;0.20;99.90
5705;DHT22;2877;48.238;11.160;2023-03-15T03:58:07;0.10;99.90
5705;DHT22;2877;48.238;11.160;2023-03-15T04:00:33;0.10;99.90
5705;DHT22;2877;48.238;11.160;2023-03-15T04:02:59;0.10;99.90
5705;DHT22;2877;48.238;11.160;2023-03-15T04:05:26;0.10;99.90
5705;DHT22;2877;48.238;11.160;2023-03-15T04:07:52;0.20;99.90
5705;DHT22;2877;48.238;11.160;2023-03-15T04:10:18;0.20;99.90
5705;DHT22;2877;48.238;11.160;2023-03-15T04:12:44;0.10;99.90
5705;DHT22;2877;48.238;11.160;2023-03-15T04:15:10;0.20;99.90
5705;DHT22;2877;48.238;11.160;2023-03-15T04:17:37;0.20;99.90
5705;DHT22;2877;48.238;11.160;2023-03-15T04:20:03;0.10;99.90
5705;DHT22;2877;48.238;11.160;2023-03-15T04:22:32;0.10;99.90
5705;DHT22;2877;48.238;11.160;2023-03-15T04:24:59;0.10;99.90
5705;DHT22;2877;48.238;11.160;2023-03-15T04:27:26;0.10;99.90
5705;DHT22;2877;48.238;11.160;2023-03-15T04:29:52;0.10;99.90
5705;DHT22;2877;48.238;11.160;2023-03-15T04:32:18;0.10;99.90
5705;DHT22;2877;48.238;11.160;2023-03-15T04:34:44;0.00;99.90
5705;DHT22;2877;48.238;11.160;2023-03-15T04:37:09;0.00;99.90
5705;DHT22;2877;48.238;11.160;2023-03-15T04:39:35;0.10;99.90
5705;DHT22;2877;48.238;11.160;2023-03-15T04:42:00;0.10;99.90
5705;DHT22;2877;48.238;11.160;2023-03-15T04:44:26;0.10;99.90
5705;DHT22;2877;48.238;11.160;2023-03-15T04:46:53;0.10;99.90
5705;DHT22;2877;48.238;11.160;2023-03-15T04:49:19;0.10;99.90
5705;DHT22;2877;48.238;11.160;2023-03-15T04:51:44;0.10;99.90
5705;DHT22;2877;48.238;11.160;2023-03-15T04:54:10;0.10;99.90
5705;DHT22;2877;48.238;11.160;2023-03-15T04:56:35;0.10;99.90
5705;DHT22;2877;48.238;11.160;2023-03-15T04:59:02;0.10;99.90
5705;DHT22;2877;48.238;11.160;2023-03-15T05:01:29;0.10;99.90
5705;DHT22;2877;48.238;11.160;2023-03-15T05:03:56;0.10;99.90
5705;DHT22;2877;48.238;11.160;2023-03-15T05:06:21;0.10;99.90
5705;DHT22;2877;48.238;11.160;2023-03-15T05:08:47;0.10;99.90
5705;DHT22;2877;48.238;11.160;2023-03-15T05:11:13;0.00;99.90
5705;DHT22;2877;48.238;11.160;2023-03-15T05:13:39;0.00;99.90
5705;DHT22;2877;48.238;11.160;2023-03-15T05:16:04;0.00;99.90
5705;DHT22;2877;48.238;11.160;2023-03-15T05:18:30;0.00;99.90
5705;DHT22;2877;48.238;11.160;2023-03-15T05:20:55;0.00;99.90
5705;DHT22;2877;48.238;11.160;2023-03-15T05:23:22;-0.10;99.90
5705;DHT22;2877;48.238;11.160;2023-03-15T05:25:50;-0.10;99.90
5705;DHT22;2877;48.238;11.160;2023-03-15T05:28:22;-0.20;99.90
5705;DHT22;2877;48.238;11.160;2023-03-15T05:30:48;-0.20;99.90
5705;DHT22;2877;48.238;11.160;2023-03-15T05:33:14;-0.20;99.90
5705;DHT22;2877;48.238;11.160;2023-03-15T05:35:41;-0.20;99.90
5705;DHT22;2877;48.238;11.160;2023-03-15T05:38:08;-0.20;99.90
5705;DHT22;2877;48.238;11.160;2023-03-15T05:40:33;-0.30;99.90
5705;DHT22;2877;48.238;11.160;2023-03-15T05:42:59;-0.30;99.90
5705;DHT22;2877;48.238;11.160;2023-03-15T05:45:24;-0.30;99.90
5705;DHT22;2877;48.238;11.160;2023-03-15T05:47:50;-0.30;99.90
5705;DHT22;2877;48.238;11.160;2023-03-15T05:50:16;-0.30;99.90
5705;DHT22;2877;48.238;11.160;2023-03-15T05:52:41;-0.30;99.90
5705;DHT22;2877;48.238;11.160;2023-03-15T05:55:07;-0.30;99.90
5705;DHT22;2877;48.238;11.160;2023-03-15T05:57:33;-0.30;99.90
5705;DHT22;2877;48.238;11.160;2023-03-15T05:59:58;-0.30;99.90
5705;DHT22;2877;48.238;11.160;2023-03-15T06:02:24;-0.30;99.90
5705;DHT22;2877;48.238;11.160;2023-03-15T06:04:49;-0.30;99.90
5705;DHT22;2877;48.238;11.160;2023-03-15T06:07:15;-0.30;99.90
5705;DHT22;2877;48.238;11.160;2023-03-15T06:09:41;-0.30;99.90
5705;DHT22;2877;48.238;11.160;2023-03-15T06:12:06;-0.30;99.90
5705;DHT22;2877;48.238;11.160;2023-03-15T06:14:32;-0.30;99.90
5705;DHT22;2877;48.238;11.160;2023-03-15T06:16:57;-0.30;99.90
5705;DHT22;2877;48.238;11.160;2023-03-15T06:19:23;-0.20;99.90
5705;DHT22;2877;48.238;11.160;2023-03-15T06:21:49;-0.10;99.90
5705;DHT22;2877;48.238;11.160;2023-03-15T06:24:15;0.00;99.90
5705;DHT22;2877;48.238;11.160;2023-03-15T06:26:41;0.00;99.90
5705;DHT22;2877;48.238;11.160;2023-03-15T06:29:06;0.00;99.90
5705;DHT22;2877;48.238;11.160;2023-03-15T06:31:32;0.00;99.90
5705;DHT22;2877;48.238;11.160;2023-03-15T06:33:57;0.00;99.90
5705;DHT22;2877;48.238;11.160;2023-03-15T06:36:23;-0.10;99.90
5705;DHT22;2877;48.238;11.160;2023-03-15T06:38:49;-0.10;99.90
5705;DHT22;2877;48.238;11.160;2023-03-15T06:41:15;-0.10;99.90
5705;DHT22;2877;48.238;11.160;2023-03-15T06:43:41;-0.10;99.90
5705;DHT22;2877;48.238;11.160;2023-03-15T06:46:07;0.00;99.90
5705;DHT22;2877;48.238;11.160;2023-03-15T06:48:32;0.00;99.90
5705;DHT22;2877;48.238;11.160;2023-03-15T06:50:58;0.10;99.90
5705;DHT22;2877;48.238;11.160;2023-03-15T06:53:23;0.20;99.90
5705;DHT22;2877;48.238;11.160;2023-03-15T06:55:49;0.30;99.90
5705;DHT22;2877;48.238;11.160;2023-03-15T06:58:16;0.30;99.90
5705;DHT22;2877;48.238;11.160;2023-03-15T07:00:41;0.30;99.90
5705;DHT22;2877;48.238;11.160;2023-03-15T07:03:08;0.40;99.90
5705;DHT22;2877;48.238;11.160;2023-03-15T07:05:34;0.40;99.90
5705;DHT22;2877;48.238;11.160;2023-03-15T07:07:59;0.50;99.90
5705;DHT22;2877;48.238;11.160;2023-03-15T07:10:25;0.60;99.90
5705;DHT22;2877;48.238;11.160;2023-03-15T07:12:50;0.60;99.90
5705;DHT22;2877;48.238;11.160;2023-03-15T07:15:16;0.70;99.90
5705;DHT22;2877;48.238;11.160;2023-03-15T07:17:42;0.70;99.90
5705;DHT22;2877;48.238;11.160;2023-03-15T07:20:08;0.80;99.90
5705;DHT22;2877;48.238;11.160;2023-03-15T07:22:34;0.80;99.90
5705;DHT22;2877;48.238;11.160;2023-03-15T07:24:59;0.80;99.90
5705;DHT22;2877;48.238;11.160;2023-03-15T07:27:25;0.90;99.90
5705;DHT22;2877;48.238;11.160;2023-03-15T07:29:51;1.00;99.90
5705;DHT22;2877;48.238;11.160;2023-03-15T07:32:17;1.00;99.90
5705;DHT22;2877;48.238;11.160;2023-03-15T07:34:43;1.10;99.90
5705;DHT22;2877;48.238;11.160;2023-03-15T07:37:08;1.10;99.90
5705;DHT22;2877;48.238;11.160;2023-03-15T07:39:34;1.20;99.90
5705;DHT22;2877;48.238;11.160;2023-03-15T07:42:00;1.30;99.90
5705;DHT22;2877;48.238;11.160;2023-03-15T07:44:26;1.30;99.90
5705;DHT22;2877;48.238;11.160;2023-03-15T07:46:51;1.40;99.90
5705;DHT22;2877;48.238;11.160;2023-03-15T07:49:19;1.50;99.90
5705;DHT22;2877;48.238;11.160;2023-03-15T07:51:44;1.50;99.90
5705;DHT22;2877;48.238;11.160;2023-03-15T07:54:10;1.60;99.90
5705;DHT22;2877;48.238;11.160;2023-03-15T07:56:35;1.70;99.90
5705;DHT22;2877;48.238;11.160;2023-03-15T07:59:01;1.70;99.90
5705;DHT22;2877;48.238;11.160;2023-03-15T08:01:26;1.80;99.90
5705;DHT22;2877;48.238;11.160;2023-03-15T08:03:52;1.90;99.90
5705;DHT22;2877;48.238;11.160;2023-03-15T08:06:17;1.80;99.90
5705;DHT22;2877;48.238;11.160;2023-03-15T08:08:43;1.90;99.90
5705;DHT22;2877;48.238;11.160;2023-03-15T08:11:09;1.90;99.90
5705;DHT22;2877;48.238;11.160;2023-03-15T08:13:34;1.80;99.90
5705;DHT22;2877;48.238;11.160;2023-03-15T08:16:00;2.10;99.90
5705;DHT22;2877;48.238;11.160;2023-03-15T08:18:26;2.20;99.90
5705;DHT22;2877;48.238;11.160;2023-03-15T08:20:53;2.30;99.90
5705;DHT22;2877;48.238;11.160;2023-03-15T08:23:19;2.30;99.90
5705;DHT22;2877;48.238;11.160;2023-03-15T08:25:46;2.30;99.90
5705;DHT22;2877;48.238;11.160;2023-03-15T08:28:12;2.40;99.90
5705;DHT22;2877;48.238;11.160;2023-03-15T08:30:37;2.40;99.90
5705;DHT22;2877;48.238;11.160;2023-03-15T08:33:03;2.30;99.90
5705;DHT22;2877;48.238;11.160;2023-03-15T08:35:28;2.20;99.90
5705;DHT22;2877;48.238;11.160;2023-03-15T08:37:56;2.30;99.90
5705;DHT22;2877;48.238;11.160;2023-03-15T08:40:21;2.30;99.90
5705;DHT22;2877;48.238;11.160;2023-03-15T08:42:51;2.20;99.90
5705;DHT22;2877;48.238;11.160;2023-03-15T08:45:17;2.20;99.90
5705;DHT22;2877;48.238;11.160;2023-03-15T08:47:43;2.40;99.90
5705;DHT22;2877;48.238;11.160;2023-03-15T08:50:11;2.40;99.90
5705;DHT22;2877;48.238;11.160;2023-03-15T08:52:37;2.50;99.90
5705;DHT22;2877;48.238;11.160;2023-03-15T08:55:03;2.70;99.90
5705;DHT22;2877;48.238;11.160;2023-03-15T08:57:30;2.70;99.90
5705;DHT22;2877;48.238;11.160;2023-03-15T09:00:01;2.70;99.90
5705;DHT22;2877;48.238;11.160;2023-03-15T09:02:32;2.70;99.90
5705;DHT22;2877;48.238;11.160;2023-03-15T09:04:58;2.70;99.90
5705;DHT22;2877;48.238;11.160;2023-03-15T09:07:23;2.90;99.90
5705;DHT22;2877;48.238;11.160;2023-03-15T09:09:49;2.90;99.90
5705;DHT22;2877;48.238;11.160;2023-03-15T09:12:19;2.90;99.90
5705;DHT22;2877;48.238;11.160;2023-03-15T09:14:45;2.90;99.90
5705;DHT22;2877;48.238;11.160;2023-03-15T09:17:10;3.00;99.90
5705;DHT22;2877;48.238;11.160;2023-03-15T09:19:36;3.00;99.90
5705;DHT22;2877;48.238;11.160;2023-03-15T09:22:02;3.10;99.90
5705;DHT22;2877;48.238;11.160;2023-03-15T09:24:28;3.20;99.90
5705;DHT22;2877;48.238;11.160;2023-03-15T09:26:53;3.20;99.90
5705;DHT22;2877;48.238;11.160;2023-03-15T09:29:19;3.20;99.90
5705;DHT22;2877;48.238;11.160;2023-03-15T09:31:44;3.40;99.90
5705;DHT22;2877;48.238;11.160;2023-03-15T09:34:10;3.50;99.90
5705;DHT22;2877;48.238;11.160;2023-03-15T09:36:35;3.60;99.90
5705;DHT22;2877;48.238;11.160;2023-03-15T09:39:01;3.60;99.90
5705;DHT22;2877;48.238;11.160;2023-03-15T09:41:41;3.60;99.90
5705;DHT22;2877;48.238;11.160;2023-03-15T09:44:22;3.80;99.90
5705;DHT22;2877;48.238;11.160;2023-03-15T09:50:18;4.20;99.90
5705;DHT22;2877;48.238;11.160;2023-03-15T09:52:53;4.30;99.90
5705;DHT22;2877;48.238;11.160;2023-03-15T09:55:22;4.60;99.90
5705;DHT22;2877;48.238;11.160;2023-03-15T09:58:00;4.60;99.90
5705;DHT22;2877;48.238;11.160;2023-03-15T10:00:53;4.20;99.90
5705;DHT22;2877;48.238;11.160;2023-03-15T10:03:45;4.30;99.90
5705;DHT22;2877;48.238;11.160;2023-03-15T10:06:28;4.30;99.90
5705;DHT22;2877;48.238;11.160;2023-03-15T10:08:59;4.30;99.90
5705;DHT22;2877;48.238;11.160;2023-03-15T10:11:46;4.30;99.90
5705;DHT22;2877;48.238;11.160;2023-03-15T10:14:23;4.50;99.90
5705;DHT22;2877;48.238;11.160;2023-03-15T10:16:51;4.70;99.90
5705;DHT22;2877;48.238;11.160;2023-03-15T10:19:23;4.60;99.90
5705;DHT22;2877;48.238;11.160;2023-03-15T10:27:37;4.90;99.90
5705;DHT22;2877;48.238;11.160;2023-03-15T10:32:42;4.40;99.90
5705;DHT22;2877;48.238;11.160;2023-03-15T10:35:13;4.30;99.90
5705;DHT22;2877;48.238;11.160;2023-03-15T10:37:40;4.60;99.90
5705;DHT22;2877;48.238;11.160;2023-03-15T10:40:09;4.80;99.90
5705;DHT22;2877;48.238;11.160;2023-03-15T10:42:49;4.90;99.90
5705;DHT22;2877;48.238;11.160;2023-03-15T10:45:23;4.80;98.10
5705;DHT22;2877;48.238;11.160;2023-03-15T10:47:50;4.70;97.50
5705;DHT22;2877;48.238;11.160;2023-03-15T10:50:27;4.80;96.80
5705;DHT22;2877;48.238;11.160;2023-03-15T10:52:55;4.90;96.50
5705;DHT22;2877;48.238;11.160;2023-03-15T10:55:47;5.00;99.50
5705;DHT22;2877;48.238;11.160;2023-03-15T10:58:24;5.10;98.20
5705;DHT22;2877;48.238;11.160;2023-03-15T11:01:03;4.80;91.80
5705;DHT22;2877;48.238;11.160;2023-03-15T11:03:32;4.80;90.40
5705;DHT22;2877;48.238;11.160;2023-03-15T11:05:58;4.90;91.50
5705;DHT22;2877;48.238;11.160;2023-03-15T11:08:37;4.90;88.60
5705;DHT22;2877;48.238;11.160;2023-03-15T11:11:04;4.90;89.90
5705;DHT22;2877;48.238;11.160;2023-03-15T11:13:35;4.90;89.20
5705;DHT22;2877;48.238;11.160;2023-03-15T11:16:07;4.90;92.40
5705;DHT22;2877;48.238;11.160;2023-03-15T11:18:53;4.90;90.20
5705;DHT22;2877;48.238;11.160;2023-03-15T11:21:22;4.90;88.40
5705;DHT22;2877;48.238;11.160;2023-03-15T11:23:50;5.00;91.60
5705;DHT22;2877;48.238;11.160;2023-03-15T11:26:21;5.20;90.80
5705;DHT22;2877;48.238;11.160;2023-03-15T11:29:19;5.30;85.50
5705;DHT22;2877;48.238;11.160;2023-03-15T11:31:46;5.40;87.80
5705;DHT22;2877;48.238;11.160;2023-03-15T11:34:25;5.30;86.90
5705;DHT22;2877;48.238;11.160;2023-03-15T11:36:59;5.30;84.20
5705;DHT22;2877;48.238;11.160;2023-03-15T11:39:43;5.20;87.30
5705;DHT22;2877;48.238;11.160;2023-03-15T11:42:15;5.60;90.90
5705;DHT22;2877;48.238;11.160;2023-03-15T11:44:47;5.90;90.00
5705;DHT22;2877;48.238;11.160;2023-03-15T11:47:39;5.90;88.90
5705;DHT22;2877;48.238;11.160;2023-03-15T11:50:06;5.30;82.20
5705;DHT22;2877;48.238;11.160;2023-03-15T11:52:31;5.10;86.80
5705;DHT22;2877;48.238;11.160;2023-03-15T11:54:59;5.10;85.70
5705;DHT22;2877;48.238;11.160;2023-03-15T11:59:55;5.30;90.70
5705;DHT22;2877;48.238;11.160;2023-03-15T12:04:52;5.40;85.60
5705;DHT22;2877;48.238;11.160;2023-03-15T12:17:55;6.10;82.90
5705;DHT22;2877;48.238;11.160;2023-03-15T12:20:35;6.00;83.90
5705;DHT22;2877;48.238;11.160;2023-03-15T12:26:22;6.20;84.80
5705;DHT22;2877;48.238;11.160;2023-03-15T12:29:14;6.80;87.00
5705;DHT22;2877;48.238;11.160;2023-03-15T12:31:44;7.10;89.70
5705;DHT22;2877;48.238;11.160;2023-03-15T12:37:00;7.80;87.90
5705;DHT22;2877;48.238;11.160;2023-03-15T12:39:43;7.30;80.90
5705;DHT22;2877;48.238;11.160;2023-03-15T12:44:53;7.10;80.80
5705;DHT22;2877;48.238;11.160;2023-03-15T12:47:19;6.80;80.10
5705;DHT22;2877;48.238;11.160;2023-03-15T12:49:45;6.70;80.90
5705;DHT22;2877;48.238;11.160;2023-03-15T12:54:54;7.40;80.20
5705;DHT22;2877;48.238;11.160;2023-03-15T12:57:29;7.40;79.00
5705;DHT22;2877;48.238;11.160;2023-03-15T13:00:00;7.10;74.40
5705;DHT22;2877;48.238;11.160;2023-03-15T13:02:35;7.50;78.40
5705;DHT22;2877;48.238;11.160;2023-03-15T13:05:16;7.60;77.40
5705;DHT22;2877;48.238;11.160;2023-03-15T13:07:59;7.90;76.70
5705;DHT22;2877;48.238;11.160;2023-03-15T13:10:44;7.80;75.10
5705;DHT22;2877;48.238;11.160;2023-03-15T13:13:50;7.50;74.80
5705;DHT22;2877;48.238;11.160;2023-03-15T13:16:32;6.80;75.40
5705;DHT22;2877;48.238;11.160;2023-03-15T13:19:21;6.40;78.10
5705;DHT22;2877;48.238;11.160;2023-03-15T13:22:11;6.30;79.20
5705;DHT22;2877;48.238;11.160;2023-03-15T13:29:56;6.10;81.60
5705;DHT22;2877;48.238;11.160;2023-03-15T13:32:22;6.10;81.50
5705;DHT22;2877;48.238;11.160;2023-03-15T13:34:48;6.20;82.50
5705;DHT22;2877;48.238;11.160;2023-03-15T13:37:21;6.40;84.00
5705;DHT22;2877;48.238;11.160;2023-03-15T13:40:01;6.20;79.60
5705;DHT22;2877;48.238;11.160;2023-03-15T13:42:28;6.10;78.90
5705;DHT22;2877;48.238;11.160;2023-03-15T13:45:13;6.00;78.60
5705;DHT22;2877;48.238;11.160;2023-03-15T13:47:44;6.10;79.10
5705;DHT22;2877;48.238;11.160;2023-03-15T13:50:16;6.10;78.30
5705;DHT22;2877;48.238;11.160;2023-03-15T13:52:42;6.20;75.80
5705;DHT22;2877;48.238;11.160;2023-03-15T13:55:11;6.20;76.60
5705;DHT22;2877;48.238;11.160;2023-03-15T13:57:37;6.20;76.90
5705;DHT22;2877;48.238;11.160;2023-03-15T14:00:07;6.10;76.50
5705;DHT22;2877;48.238;11.160;2023-03-15T14:05:17;6.10;78.80
5705;DHT22;2877;48.238;11.160;2023-03-15T14:07:47;6.20;76.70
5705;DHT22;2877;48.238;11.160;2023-03-15T14:10:34;6.10;77.50
5705;DHT22;2877;48.238;11.160;2023-03-15T14:13:23;6.00;74.70
5705;DHT22;2877;48.238;11.160;2023-03-15T14:15:49;5.80;74.00
5705;DHT22;2877;48.238;11.160;2023-03-15T14:18:23;5.70;73.90
5705;DHT22;2877;48.238;11.160;2023-03-15T14:23:39;5.70;76.70
5705;DHT22;2877;48.238;11.160;2023-03-15T14:26:25;5.60;78.50
5705;DHT22;2877;48.238;11.160;2023-03-15T14:28:57;5.60;78.50
5705;DHT22;2877;48.238;11.160;2023-03-15T14:31:29;5.60;80.20
5705;DHT22;2877;48.238;11.160;2023-03-15T14:34:05;5.70;77.70
5705;DHT22;2877;48.238;11.160;2023-03-15T14:36:38;5.80;80.60
5705;DHT22;2877;48.238;11.160;2023-03-15T14:40:03;5.90;78.90
5705;DHT22;2877;48.238;11.160;2023-03-15T14:42:05;6.00;77.80
5705;DHT22;2877;48.238;11.160;2023-03-15T14:44:31;6.10;78.70
5705;DHT22;2877;48.238;11.160;2023-03-15T14:46:57;6.30;77.30
5705;DHT22;2877;48.238;11.160;2023-03-15T14:49:27;6.40;77.40
5705;DHT22;2877;48.238;11.160;2023-03-15T14:51:57;6.30;75.40
5705;DHT22;2877;48.238;11.160;2023-03-15T14:54:24;6.20;74.30
5705;DHT22;2877;48.238;11.160;2023-03-15T14:56:49;6.30;75.20
5705;DHT22;2877;48.238;11.160;2023-03-15T14:59:15;6.30;73.00
5705;DHT22;2877;48.238;11.160;2023-03-15T15:01:47;6.20;71.40
5705;DHT22;2877;48.238;11.160;2023-03-15T15:04:13;6.10;71.10
5705;DHT22;2877;48.238;11.160;2023-03-15T15:06:39;6.10;70.60
5705;DHT22;2877;48.238;11.160;2023-03-15T15:09:20;6.00;73.20
5705;DHT22;2877;48.238;11.160;2023-03-15T15:11:46;6.00;73.00
5705;DHT22;2877;48.238;11.160;2023-03-15T15:14:12;6.00;72.20
5705;DHT22;2877;48.238;11.160;2023-03-15T15:16:39;5.90;74.20
5705;DHT22;2877;48.238;11.160;2023-03-15T15:19:05;5.90;73.10
5705;DHT22;2877;48.238;11.160;2023-03-15T15:21:30;5.80;72.90
5705;DHT22;2877;48.238;11.160;2023-03-15T15:23:56;5.80;73.40
5705;DHT22;2877;48.238;11.160;2023-03-15T15:26:24;5.70;74.70
5705;DHT22;2877;48.238;11.160;2023-03-15T15:28:53;5.60;74.40
5705;DHT22;2877;48.238;11.160;2023-03-15T15:31:21;5.50;75.50
5705;DHT22;2877;48.238;11.160;2023-03-15T15:33:48;5.50;75.20
5705;DHT22;2877;48.238;11.160;2023-03-15T15:36:19;5.50;76.70
5705;DHT22;2877;48.238;11.160;2023-03-15T15:38:45;5.50;75.80
5705;DHT22;2877;48.238;11.160;2023-03-15T15:41:22;5.50;76.70
5705;DHT22;2877;48.238;11.160;2023-03-15T15:43:49;5.50;78.90
5705;DHT22;2877;48.238;11.160;2023-03-15T15:46:14;5.50;76.80
5705;DHT22;2877;48.238;11.160;2023-03-15T15:48:40;5.50;77.10
5705;DHT22;2877;48.238;11.160;2023-03-15T15:53:51;5.50;76.80
5705;DHT22;2877;48.238;11.160;2023-03-15T15:56:18;5.40;85.20
5705;DHT22;2877;48.238;11.160;2023-03-15T15:58:43;5.20;88.60
5705;DHT22;2877;48.238;11.160;2023-03-15T16:01:14;5.00;90.60
5705;DHT22;2877;48.238;11.160;2023-03-15T16:03:40;4.80;91.30
5705;DHT22;2877;48.238;11.160;2023-03-15T16:06:18;4.60;92.20
5705;DHT22;2877;48.238;11.160;2023-03-15T16:08:44;4.60;93.00
5705;DHT22;2877;48.238;11.160;2023-03-15T16:11:12;4.50;94.00
5705;DHT22;2877;48.238;11.160;2023-03-15T16:13:39;4.50;94.60
5705;DHT22;2877;48.238;11.160;2023-03-15T16:16:05;4.40;95.80
5705;DHT22;2877;48.238;11.160;2023-03-15T16:18:30;4.40;96.70
5705;DHT22;2877;48.238;11.160;2023-03-15T16:20:57;4.40;97.50
5705;DHT22;2877;48.238;11.160;2023-03-15T16:23:24;4.30;99.10
5705;DHT22;2877;48.238;11.160;2023-03-15T16:25:53;4.30;99.90
5705;DHT22;2877;48.238;11.160;2023-03-15T16:28:20;4.30;99.90
5705;DHT22;2877;48.238;11.160;2023-03-15T16:30:46;4.20;99.90
5705;DHT22;2877;48.238;11.160;2023-03-15T16:33:19;4.10;99.90
5705;DHT22;2877;48.238;11.160;2023-03-15T16:35:45;4.10;99.90
5705;DHT22;2877;48.238;11.160;2023-03-15T16:38:16;4.00;99.90
5705;DHT22;2877;48.238;11.160;2023-03-15T16:40:43;4.00;99.90
5705;DHT22;2877;48.238;11.160;2023-03-15T16:43:11;3.90;99.90
5705;DHT22;2877;48.238;11.160;2023-03-15T16:45:37;3.90;99.90
5705;DHT22;2877;48.238;11.160;2023-03-15T16:48:03;3.90;99.90
5705;DHT22;2877;48.238;11.160;2023-03-15T16:50:29;3.80;99.90
5705;DHT22;2877;48.238;11.160;2023-03-15T16:52:56;3.80;99.90
5705;DHT22;2877;48.238;11.160;2023-03-15T16:55:26;3.80;99.90
5705;DHT22;2877;48.238;11.160;2023-03-15T16:57:53;3.80;99.90
5705;DHT22;2877;48.238;11.160;2023-03-15T17:00:20;3.80;99.90
5705;DHT22;2877;48.238;11.160;2023-03-15T17:02:48;3.70;99.90
5705;DHT22;2877;48.238;11.160;2023-03-15T17:05:14;3.70;99.90